sensor_id;sensor_type;location;lat;lon;timestamp;pressure;altitude;pressure_sealevel;temperature;humidity
16806;BME280;8520;50.102;20.010;2022-07-10T00:02:24;98328.19;;;17.52;72.91
16806;BME280;8520;50.102;20.010;2022-07-10T00:05:13;98322.06;;;16.93;74.89
16806;BME280;8520;50.102;20.010;2022-07-10T00:08:06;98322.91;;;16.77;76.49
16806;BME280;8520;50.102;20.010;2022-07-10T00:10:54;98320.19;;;17.07;75.61
16806;BME280;8520;50.102;20.010;2022-07-10T00:13:43;98324.97;;;17.12;75.80
16806;BME280;8520;50.102;20.010;2022-07-10T00:16:32;98326.34;;;16.94;76.65
16806;BME280;8520;50.102;20.010;2022-07-10T00:19:22;98322.03;;;16.46;78.25
16806;BME280;8520;50.102;20.010;2022-07-10T00:22:11;98316.19;;;16.50;77.87
16806;BME280;8520;50.102;20.010;2022-07-10T00:24:59;98318.75;;;16.42;78.66
16806;BME280;8520;50.102;20.010;2022-07-10T00:27:48;98317.53;;;16.32;79.01
16806;BME280;8520;50.102;20.010;2022-07-10T00:30:36;98319.03;;;16.33;79.01
16806;BME280;8520;50.102;20.010;2022-07-10T00:33:26;98310.03;;;16.10;79.41
16806;BME280;8520;50.102;20.010;2022-07-10T00:36:15;98316.25;;;16.39;78.75
16806;BME280;8520;50.102;20.010;2022-07-10T00:39:04;98306.25;;;16.02;79.64
16806;BME280;8520;50.102;20.010;2022-07-10T00:41:53;98299.59;;;16.28;79.18
16806;BME280;8520;50.102;20.010;2022-07-10T00:44:42;98294.41;;;15.90;80.00
16806;BME280;8520;50.102;20.010;2022-07-10T00:47:31;98295.38;;;16.04;79.74
16806;BME280;8520;50.102;20.010;2022-07-10T00:50:21;98298.81;;;16.27;79.30
16806;BME280;8520;50.102;20.010;2022-07-10T00:53:10;98285.84;;;15.83;81.05
16806;BME280;8520;50.102;20.010;2022-07-10T00:55:59;98293.94;;;15.70;82.50
16806;BME280;8520;50.102;20.010;2022-07-10T00:58:48;98285.59;;;15.70;82.67
16806;BME280;8520;50.102;20.010;2022-07-10T01:01:37;98289.66;;;15.69;82.32
16806;BME280;8520;50.102;20.010;2022-07-10T01:04:25;98278.94;;;16.06;80.69
16806;BME280;8520;50.102;20.010;2022-07-10T01:07:15;98278.06;;;15.64;82.24
16806;BME280;8520;50.102;20.010;2022-07-10T01:10:04;98270.66;;;16.01;80.02
16806;BME280;8520;50.102;20.010;2022-07-10T01:12:53;98271.75;;;15.64;82.44
16806;BME280;8520;50.102;20.010;2022-07-10T01:15:42;98274.94;;;15.90;80.90
16806;BME280;8520;50.102;20.010;2022-07-10T01:18:30;98267.19;;;15.44;81.72
16806;BME280;8520;50.102;20.010;2022-07-10T01:21:27;98257.81;;;15.53;82.55
16806;BME280;8520;50.102;20.010;2022-07-10T01:24:16;98267.19;;;15.44;82.47
16806;BME280;8520;50.102;20.010;2022-07-10T01:27:05;98262.13;;;15.82;81.66
16806;BME280;8520;50.102;20.010;2022-07-10T01:29:55;98267.88;;;15.95;80.95
16806;BME280;8520;50.102;20.010;2022-07-10T01:32:43;98262.81;;;15.93;81.38
16806;BME280;8520;50.102;20.010;2022-07-10T01:35:31;98253.75;;;15.93;81.22
16806;BME280;8520;50.102;20.010;2022-07-10T01:38:21;98255.19;;;16.05;81.38
16806;BME280;8520;50.102;20.010;2022-07-10T01:41:10;98254.34;;;16.27;80.60
16806;BME280;8520;50.102;20.010;2022-07-10T01:43:58;98243.13;;;16.44;80.44
16806;BME280;8520;50.102;20.010;2022-07-10T01:46:47;98242.91;;;16.42;80.13
16806;BME280;8520;50.102;20.010;2022-07-10T01:49:36;98238.81;;;16.48;80.38
16806;BME280;8520;50.102;20.010;2022-07-10T01:52:24;98233.28;;;16.43;80.06
16806;BME280;8520;50.102;20.010;2022-07-10T01:55:14;98233.88;;;16.25;80.75
16806;BME280;8520;50.102;20.010;2022-07-10T01:58:03;98241.53;;;16.07;81.81
16806;BME280;8520;50.102;20.010;2022-07-10T02:00:51;98236.31;;;15.92;82.29
16806;BME280;8520;50.102;20.010;2022-07-10T02:03:39;98226.47;;;15.91;82.53
16806;BME280;8520;50.102;20.010;2022-07-10T02:06:45;98234.81;;;15.80;82.79
16806;BME280;8520;50.102;20.010;2022-07-10T02:09:34;98226.34;;;16.19;81.23
16806;BME280;8520;50.102;20.010;2022-07-10T02:12:24;98217.88;;;15.89;82.46
16806;BME280;8520;50.102;20.010;2022-07-10T02:15:12;98209.81;;;15.80;82.68
16806;BME280;8520;50.102;20.010;2022-07-10T02:18:01;98210.72;;;16.05;81.97
16806;BME280;8520;50.102;20.010;2022-07-10T02:20:50;98200.00;;;16.32;80.83
16806;BME280;8520;50.102;20.010;2022-07-10T02:23:39;98210.09;;;15.71;83.00
16806;BME280;8520;50.102;20.010;2022-07-10T02:26:28;98218.25;;;15.30;85.26
16806;BME280;8520;50.102;20.010;2022-07-10T02:29:18;98224.78;;;15.55;84.84
16806;BME280;8520;50.102;20.010;2022-07-10T02:32:07;98224.31;;;14.95;86.64
16806;BME280;8520;50.102;20.010;2022-07-10T02:34:56;98222.28;;;15.23;86.05
16806;BME280;8520;50.102;20.010;2022-07-10T02:37:44;98213.69;;;15.38;86.14
16806;BME280;8520;50.102;20.010;2022-07-10T02:40:33;98218.00;;;15.05;87.08
16806;BME280;8520;50.102;20.010;2022-07-10T02:43:21;98208.44;;;15.01;87.22
16806;BME280;8520;50.102;20.010;2022-07-10T02:46:11;98216.44;;;15.49;86.64
16806;BME280;8520;50.102;20.010;2022-07-10T02:48:59;98203.34;;;15.39;87.01
16806;BME280;8520;50.102;20.010;2022-07-10T02:51:48;98193.50;;;15.38;87.41
16806;BME280;8520;50.102;20.010;2022-07-10T02:54:38;98201.63;;;14.96;88.95
16806;BME280;8520;50.102;20.010;2022-07-10T02:57:26;98197.59;;;14.92;89.77
16806;BME280;8520;50.102;20.010;2022-07-10T03:00:15;98199.84;;;15.10;89.54
16806;BME280;8520;50.102;20.010;2022-07-10T03:03:04;98189.50;;;15.11;89.35
16806;BME280;8520;50.102;20.010;2022-07-10T03:05:53;98205.38;;;15.32;88.94
16806;BME280;8520;50.102;20.010;2022-07-10T03:08:41;98206.09;;;15.50;87.37
16806;BME280;8520;50.102;20.010;2022-07-10T03:11:30;98206.13;;;15.39;88.57
16806;BME280;8520;50.102;20.010;2022-07-10T03:14:18;98195.72;;;15.73;87.25
16806;BME280;8520;50.102;20.010;2022-07-10T03:17:07;98194.28;;;16.07;85.52
16806;BME280;8520;50.102;20.010;2022-07-10T03:19:56;98199.44;;;15.86;86.09
16806;BME280;8520;50.102;20.010;2022-07-10T03:22:45;98192.09;;;15.95;86.17
16806;BME280;8520;50.102;20.010;2022-07-10T03:25:33;98185.09;;;15.60;88.29
16806;BME280;8520;50.102;20.010;2022-07-10T03:28:22;98191.78;;;15.12;89.39
16806;BME280;8520;50.102;20.010;2022-07-10T03:31:10;98180.81;;;15.76;87.16
16806;BME280;8520;50.102;20.010;2022-07-10T03:33:59;98189.44;;;15.50;87.86
16806;BME280;8520;50.102;20.010;2022-07-10T03:36:49;98183.94;;;15.16;89.58
16806;BME280;8520;50.102;20.010;2022-07-10T03:39:38;98192.97;;;15.45;88.46
16806;BME280;8520;50.102;20.010;2022-07-10T03:42:27;98189.69;;;15.52;88.97
16806;BME280;8520;50.102;20.010;2022-07-10T03:45:15;98182.13;;;15.47;88.89
16806;BME280;8520;50.102;20.010;2022-07-10T03:48:04;98176.03;;;15.59;87.80
16806;BME280;8520;50.102;20.010;2022-07-10T03:50:52;98180.28;;;15.77;87.95
16806;BME280;8520;50.102;20.010;2022-07-10T03:53:42;98177.44;;;15.94;86.87
16806;BME280;8520;50.102;20.010;2022-07-10T03:56:31;98173.00;;;16.21;85.88
16806;BME280;8520;50.102;20.010;2022-07-10T03:59:37;98173.22;;;16.29;85.22
16806;BME280;8520;50.102;20.010;2022-07-10T04:02:25;98167.19;;;16.60;84.13
16806;BME280;8520;50.102;20.010;2022-07-10T04:05:13;98161.47;;;16.47;84.70
16806;BME280;8520;50.102;20.010;2022-07-10T04:08:03;98159.78;;;16.38;84.48
16806;BME280;8520;50.102;20.010;2022-07-10T04:10:53;98164.53;;;16.43;85.24
16806;BME280;8520;50.102;20.010;2022-07-10T04:13:41;98156.84;;;16.19;85.23
16806;BME280;8520;50.102;20.010;2022-07-10T04:16:30;98160.22;;;16.48;84.59
16806;BME280;8520;50.102;20.010;2022-07-10T04:19:18;98162.75;;;15.99;86.20
16806;BME280;8520;50.102;20.010;2022-07-10T04:22:08;98168.19;;;15.69;87.81
16806;BME280;8520;50.102;20.010;2022-07-10T04:24:57;98161.44;;;15.48;89.38
16806;BME280;8520;50.102;20.010;2022-07-10T04:27:47;98161.88;;;15.74;87.13
16806;BME280;8520;50.102;20.010;2022-07-10T04:30:35;98166.63;;;15.85;88.02
16806;BME280;8520;50.102;20.010;2022-07-10T04:33:25;98164.31;;;15.95;87.29
16806;BME280;8520;50.102;20.010;2022-07-10T04:36:13;98169.59;;;15.98;86.83
16806;BME280;8520;50.102;20.010;2022-07-10T04:39:02;98176.34;;;15.33;89.23
16806;BME280;8520;50.102;20.010;2022-07-10T04:41:50;98165.94;;;15.62;87.84
16806;BME280;8520;50.102;20.010;2022-07-10T04:44:40;98167.50;;;15.41;88.54
16806;BME280;8520;50.102;20.010;2022-07-10T04:47:28;98164.44;;;15.67;88.21
16806;BME280;8520;50.102;20.010;2022-07-10T04:50:17;98161.19;;;15.46;88.59
16806;BME280;8520;50.102;20.010;2022-07-10T04:53:06;98157.59;;;15.73;88.28
16806;BME280;8520;50.102;20.010;2022-07-10T04:55:54;98154.81;;;15.68;88.50
16806;BME280;8520;50.102;20.010;2022-07-10T04:58:42;98153.19;;;15.89;87.79
16806;BME280;8520;50.102;20.010;2022-07-10T05:01:39;98169.28;;;15.38;89.65
16806;BME280;8520;50.102;20.010;2022-07-10T05:04:28;98163.63;;;15.72;89.20
16806;BME280;8520;50.102;20.010;2022-07-10T05:07:16;98176.38;;;15.22;91.41
16806;BME280;8520;50.102;20.010;2022-07-10T05:10:06;98167.31;;;16.02;88.53
16806;BME280;8520;50.102;20.010;2022-07-10T05:12:54;98180.94;;;14.97;91.95
16806;BME280;8520;50.102;20.010;2022-07-10T05:15:45;98168.28;;;15.24;90.76
16806;BME280;8520;50.102;20.010;2022-07-10T05:18:35;98178.66;;;15.07;91.27
16806;BME280;8520;50.102;20.010;2022-07-10T05:21:24;98168.09;;;14.77;92.59
16806;BME280;8520;50.102;20.010;2022-07-10T05:24:13;98182.44;;;15.04;91.05
16806;BME280;8520;50.102;20.010;2022-07-10T05:27:02;98161.03;;;14.93;92.22
16806;BME280;8520;50.102;20.010;2022-07-10T05:29:50;98164.28;;;15.14;91.38
16806;BME280;8520;50.102;20.010;2022-07-10T05:32:43;98155.66;;;15.34;89.79
16806;BME280;8520;50.102;20.010;2022-07-10T05:35:33;98151.63;;;15.24;91.47
16806;BME280;8520;50.102;20.010;2022-07-10T05:38:22;98156.84;;;15.73;89.65
16806;BME280;8520;50.102;20.010;2022-07-10T05:41:10;98162.59;;;15.80;87.80
16806;BME280;8520;50.102;20.010;2022-07-10T05:43:59;98161.06;;;15.85;88.47
16806;BME280;8520;50.102;20.010;2022-07-10T05:46:47;98187.34;;;15.78;88.57
16806;BME280;8520;50.102;20.010;2022-07-10T05:49:36;98188.91;;;15.62;87.16
16806;BME280;8520;50.102;20.010;2022-07-10T05:52:26;98190.81;;;15.96;84.96
16806;BME280;8520;50.102;20.010;2022-07-10T05:55:15;98164.44;;;16.19;83.30
16806;BME280;8520;50.102;20.010;2022-07-10T05:58:03;98174.41;;;16.80;80.76
16806;BME280;8520;50.102;20.010;2022-07-10T06:00:52;98172.56;;;16.88;80.48
16806;BME280;8520;50.102;20.010;2022-07-10T06:03:40;98185.59;;;16.74;80.15
16806;BME280;8520;50.102;20.010;2022-07-10T06:06:29;98163.19;;;16.56;80.74
16806;BME280;8520;50.102;20.010;2022-07-10T06:09:18;98162.31;;;16.72;80.36
16806;BME280;8520;50.102;20.010;2022-07-10T06:12:07;98172.47;;;16.69;80.20
16806;BME280;8520;50.102;20.010;2022-07-10T06:14:56;98160.59;;;17.23;79.21
16806;BME280;8520;50.102;20.010;2022-07-10T06:17:44;98163.09;;;17.27;79.62
16806;BME280;8520;50.102;20.010;2022-07-10T06:20:33;98166.25;;;16.88;81.04
16806;BME280;8520;50.102;20.010;2022-07-10T06:23:22;98183.25;;;16.78;80.33
16806;BME280;8520;50.102;20.010;2022-07-10T06:26:11;98188.22;;;16.91;80.66
16806;BME280;8520;50.102;20.010;2022-07-10T06:29:00;98176.19;;;16.36;83.00
16806;BME280;8520;50.102;20.010;2022-07-10T06:31:48;98168.31;;;16.46;83.27
16806;BME280;8520;50.102;20.010;2022-07-10T06:34:37;98178.19;;;16.83;81.14
16806;BME280;8520;50.102;20.010;2022-07-10T06:37:25;98185.31;;;16.72;80.52
16806;BME280;8520;50.102;20.010;2022-07-10T06:40:14;98184.06;;;16.73;79.76
16806;BME280;8520;50.102;20.010;2022-07-10T06:43:04;98184.91;;;16.57;79.71
16806;BME280;8520;50.102;20.010;2022-07-10T06:45:52;98172.88;;;16.43;79.35
16806;BME280;8520;50.102;20.010;2022-07-10T06:48:41;98196.25;;;16.65;78.04
16806;BME280;8520;50.102;20.010;2022-07-10T06:51:29;98207.19;;;16.52;77.36
16806;BME280;8520;50.102;20.010;2022-07-10T06:54:17;98179.78;;;16.67;77.59
16806;BME280;8520;50.102;20.010;2022-07-10T06:57:06;98184.59;;;17.26;75.02
16806;BME280;8520;50.102;20.010;2022-07-10T06:59:56;98171.22;;;17.25;75.61
16806;BME280;8520;50.102;20.010;2022-07-10T07:02:44;98189.50;;;16.90;74.76
16806;BME280;8520;50.102;20.010;2022-07-10T07:05:33;98192.00;;;17.48;72.31
16806;BME280;8520;50.102;20.010;2022-07-10T07:08:21;98195.22;;;17.03;73.35
16806;BME280;8520;50.102;20.010;2022-07-10T07:11:10;98179.19;;;17.10;72.97
16806;BME280;8520;50.102;20.010;2022-07-10T07:13:58;98203.66;;;17.47;72.22
16806;BME280;8520;50.102;20.010;2022-07-10T07:16:48;98176.84;;;17.68;73.02
16806;BME280;8520;50.102;20.010;2022-07-10T07:19:46;98178.88;;;17.43;74.29
16806;BME280;8520;50.102;20.010;2022-07-10T07:22:52;98187.09;;;17.54;71.31
16806;BME280;8520;50.102;20.010;2022-07-10T07:25:59;98178.69;;;16.81;73.63
16806;BME280;8520;50.102;20.010;2022-07-10T07:28:47;98163.44;;;17.42;72.23
16806;BME280;8520;50.102;20.010;2022-07-10T07:31:36;98191.69;;;17.03;72.82
16806;BME280;8520;50.102;20.010;2022-07-10T07:34:26;98200.81;;;17.52;70.89
16806;BME280;8520;50.102;20.010;2022-07-10T07:37:14;98214.38;;;17.13;72.64
16806;BME280;8520;50.102;20.010;2022-07-10T07:40:03;98179.25;;;17.04;71.75
16806;BME280;8520;50.102;20.010;2022-07-10T07:42:53;98192.34;;;16.85;70.79
16806;BME280;8520;50.102;20.010;2022-07-10T07:45:42;98180.19;;;17.37;68.90
16806;BME280;8520;50.102;20.010;2022-07-10T07:48:30;98148.84;;;17.55;70.49
16806;BME280;8520;50.102;20.010;2022-07-10T07:51:20;98195.28;;;17.96;69.68
16806;BME280;8520;50.102;20.010;2022-07-10T07:54:09;98182.41;;;17.93;67.94
16806;BME280;8520;50.102;20.010;2022-07-10T07:56:57;98165.13;;;17.26;69.98
16806;BME280;8520;50.102;20.010;2022-07-10T07:59:46;98186.00;;;17.87;70.41
16806;BME280;8520;50.102;20.010;2022-07-10T08:02:35;98194.84;;;17.43;68.06
16806;BME280;8520;50.102;20.010;2022-07-10T08:05:24;98162.97;;;17.14;68.56
16806;BME280;8520;50.102;20.010;2022-07-10T08:08:14;98191.69;;;17.52;69.26
16806;BME280;8520;50.102;20.010;2022-07-10T08:11:03;98209.47;;;17.73;69.28
16806;BME280;8520;50.102;20.010;2022-07-10T08:13:52;98188.38;;;18.21;67.96
16806;BME280;8520;50.102;20.010;2022-07-10T08:16:40;98212.47;;;17.51;69.16
16806;BME280;8520;50.102;20.010;2022-07-10T08:19:29;98206.66;;;17.98;65.68
16806;BME280;8520;50.102;20.010;2022-07-10T08:22:17;98174.06;;;17.44;68.59
16806;BME280;8520;50.102;20.010;2022-07-10T08:25:08;98184.50;;;17.62;67.16
16806;BME280;8520;50.102;20.010;2022-07-10T08:28:00;98137.44;;;17.10;67.85
16806;BME280;8520;50.102;20.010;2022-07-10T08:30:49;98175.91;;;17.60;67.44
16806;BME280;8520;50.102;20.010;2022-07-10T08:33:37;98119.00;;;17.31;67.94
16806;BME280;8520;50.102;20.010;2022-07-10T08:36:26;98174.97;;;17.03;65.24
16806;BME280;8520;50.102;20.010;2022-07-10T08:39:34;98177.69;;;17.82;65.47
16806;BME280;8520;50.102;20.010;2022-07-10T08:42:24;98192.06;;;18.29;64.77
16806;BME280;8520;50.102;20.010;2022-07-10T08:45:14;98167.72;;;18.30;65.51
16806;BME280;8520;50.102;20.010;2022-07-10T08:48:03;98195.06;;;17.94;65.13
16806;BME280;8520;50.102;20.010;2022-07-10T08:50:54;98209.66;;;17.81;64.95
16806;BME280;8520;50.102;20.010;2022-07-10T08:53:43;98179.59;;;17.49;64.83
16806;BME280;8520;50.102;20.010;2022-07-10T08:56:32;98199.91;;;17.14;65.62
16806;BME280;8520;50.102;20.010;2022-07-10T08:59:23;98204.34;;;17.28;66.75
16806;BME280;8520;50.102;20.010;2022-07-10T09:02:17;98203.78;;;17.60;65.39
16806;BME280;8520;50.102;20.010;2022-07-10T09:05:06;98225.97;;;17.71;65.90
16806;BME280;8520;50.102;20.010;2022-07-10T09:07:55;98202.06;;;17.02;67.19
16806;BME280;8520;50.102;20.010;2022-07-10T09:10:44;98187.06;;;17.35;66.56
16806;BME280;8520;50.102;20.010;2022-07-10T09:13:48;98180.78;;;17.78;65.82
16806;BME280;8520;50.102;20.010;2022-07-10T09:16:39;98202.78;;;17.82;64.56
16806;BME280;8520;50.102;20.010;2022-07-10T09:19:28;98197.81;;;17.50;63.91
16806;BME280;8520;50.102;20.010;2022-07-10T09:22:16;98159.16;;;17.41;64.77
16806;BME280;8520;50.102;20.010;2022-07-10T09:25:12;98191.94;;;17.29;64.44
16806;BME280;8520;50.102;20.010;2022-07-10T09:28:01;98225.69;;;17.20;64.30
16806;BME280;8520;50.102;20.010;2022-07-10T09:30:52;98184.03;;;17.33;63.79
16806;BME280;8520;50.102;20.010;2022-07-10T09:33:45;98144.03;;;17.55;62.92
16806;BME280;8520;50.102;20.010;2022-07-10T09:36:33;98214.38;;;17.61;62.10
16806;BME280;8520;50.102;20.010;2022-07-10T09:39:24;98204.38;;;17.77;62.84
16806;BME280;8520;50.102;20.010;2022-07-10T09:42:24;98196.25;;;17.79;62.22
16806;BME280;8520;50.102;20.010;2022-07-10T09:45:14;98202.72;;;17.63;62.04
16806;BME280;8520;50.102;20.010;2022-07-10T09:48:03;98204.94;;;17.70;62.56
16806;BME280;8520;50.102;20.010;2022-07-10T09:50:53;98237.28;;;17.79;60.81
16806;BME280;8520;50.102;20.010;2022-07-10T09:53:43;98221.94;;;17.91;58.36
16806;BME280;8520;50.102;20.010;2022-07-10T09:56:38;98192.38;;;17.82;60.86
16806;BME280;8520;50.102;20.010;2022-07-10T09:59:31;98195.75;;;18.75;62.27
16806;BME280;8520;50.102;20.010;2022-07-10T10:02:20;98214.06;;;17.71;58.61
16806;BME280;8520;50.102;20.010;2022-07-10T10:05:09;98235.06;;;17.96;58.21
16806;BME280;8520;50.102;20.010;2022-07-10T10:08:01;98219.78;;;18.59;56.71
16806;BME280;8520;50.102;20.010;2022-07-10T10:10:52;98200.28;;;18.40;56.91
16806;BME280;8520;50.102;20.010;2022-07-10T10:13:42;98193.63;;;18.43;55.74
16806;BME280;8520;50.102;20.010;2022-07-10T10:16:32;98203.03;;;19.10;54.84
16806;BME280;8520;50.102;20.010;2022-07-10T10:19:24;98193.03;;;18.69;55.40
16806;BME280;8520;50.102;20.010;2022-07-10T10:22:30;98186.38;;;18.72;55.94
16806;BME280;8520;50.102;20.010;2022-07-10T10:25:23;98181.19;;;18.95;56.34
16806;BME280;8520;50.102;20.010;2022-07-10T10:28:13;98188.34;;;18.78;56.64
16806;BME280;8520;50.102;20.010;2022-07-10T10:31:03;98191.00;;;18.51;58.29
16806;BME280;8520;50.102;20.010;2022-07-10T10:33:54;98255.66;;;18.12;57.24
16806;BME280;8520;50.102;20.010;2022-07-10T10:36:44;98191.66;;;18.01;57.64
16806;BME280;8520;50.102;20.010;2022-07-10T10:39:51;98195.44;;;18.60;56.33
16806;BME280;8520;50.102;20.010;2022-07-10T10:42:46;98208.53;;;17.41;59.59
16806;BME280;8520;50.102;20.010;2022-07-10T10:45:35;98212.38;;;17.86;60.22
16806;BME280;8520;50.102;20.010;2022-07-10T10:48:24;98220.94;;;17.64;59.03
16806;BME280;8520;50.102;20.010;2022-07-10T10:51:56;98205.59;;;18.01;58.35
16806;BME280;8520;50.102;20.010;2022-07-10T10:55:04;98215.25;;;17.26;57.46
16806;BME280;8520;50.102;20.010;2022-07-10T10:58:11;98226.25;;;17.68;56.53
16806;BME280;8520;50.102;20.010;2022-07-10T11:01:03;98217.88;;;17.92;54.72
16806;BME280;8520;50.102;20.010;2022-07-10T11:04:14;98228.25;;;17.91;55.75
16806;BME280;8520;50.102;20.010;2022-07-10T11:07:04;98211.13;;;17.33;57.52
16806;BME280;8520;50.102;20.010;2022-07-10T11:10:28;98193.28;;;17.47;58.92
16806;BME280;8520;50.102;20.010;2022-07-10T11:13:18;98180.97;;;17.61;60.21
16806;BME280;8520;50.102;20.010;2022-07-10T11:16:12;98217.31;;;18.37;56.92
16806;BME280;8520;50.102;20.010;2022-07-10T11:19:01;98191.31;;;18.47;58.66
16806;BME280;8520;50.102;20.010;2022-07-10T11:22:11;98144.03;;;18.36;58.89
16806;BME280;8520;50.102;20.010;2022-07-10T11:25:07;98206.25;;;17.63;59.65
16806;BME280;8520;50.102;20.010;2022-07-10T11:28:05;98200.59;;;17.50;60.49
16806;BME280;8520;50.102;20.010;2022-07-10T11:30:57;98193.06;;;17.15;59.91
16806;BME280;8520;50.102;20.010;2022-07-10T11:33:47;98204.78;;;17.38;58.66
16806;BME280;8520;50.102;20.010;2022-07-10T11:36:39;98193.63;;;17.38;58.65
16806;BME280;8520;50.102;20.010;2022-07-10T11:39:27;98196.84;;;17.91;57.93
16806;BME280;8520;50.102;20.010;2022-07-10T11:42:16;98196.88;;;17.67;59.83
16806;BME280;8520;50.102;20.010;2022-07-10T11:45:23;98213.66;;;17.85;58.63
16806;BME280;8520;50.102;20.010;2022-07-10T11:48:22;98208.88;;;17.80;57.98
16806;BME280;8520;50.102;20.010;2022-07-10T11:51:21;98203.13;;;18.16;57.72
16806;BME280;8520;50.102;20.010;2022-07-10T11:54:13;98186.72;;;19.14;55.88
16806;BME280;8520;50.102;20.010;2022-07-10T11:57:05;98201.41;;;18.51;53.60
16806;BME280;8520;50.102;20.010;2022-07-10T11:59:55;98200.22;;;18.97;54.80
16806;BME280;8520;50.102;20.010;2022-07-10T12:02:43;98192.00;;;19.31;52.24
16806;BME280;8520;50.102;20.010;2022-07-10T12:05:35;98168.06;;;18.90;52.60
16806;BME280;8520;50.102;20.010;2022-07-10T12:08:23;98191.59;;;19.53;52.94
16806;BME280;8520;50.102;20.010;2022-07-10T12:11:13;98192.19;;;19.20;49.89
16806;BME280;8520;50.102;20.010;2022-07-10T12:14:10;98195.69;;;19.52;47.72
16806;BME280;8520;50.102;20.010;2022-07-10T12:16:59;98167.06;;;19.20;50.15
16806;BME280;8520;50.102;20.010;2022-07-10T12:19:50;98189.66;;;18.39;51.94
16806;BME280;8520;50.102;20.010;2022-07-10T12:22:43;98184.41;;;18.86;49.78
16806;BME280;8520;50.102;20.010;2022-07-10T12:25:32;98189.97;;;19.31;49.19
16806;BME280;8520;50.102;20.010;2022-07-10T12:28:21;98188.81;;;18.95;50.65
16806;BME280;8520;50.102;20.010;2022-07-10T12:31:09;98186.69;;;18.69;50.34
16806;BME280;8520;50.102;20.010;2022-07-10T12:33:59;98169.78;;;19.65;48.40
16806;BME280;8520;50.102;20.010;2022-07-10T12:36:51;98187.09;;;19.50;48.56
16806;BME280;8520;50.102;20.010;2022-07-10T12:39:47;98184.38;;;19.45;49.87
16806;BME280;8520;50.102;20.010;2022-07-10T12:42:36;98175.78;;;20.09;49.42
16806;BME280;8520;50.102;20.010;2022-07-10T12:45:24;98167.44;;;20.43;50.43
16806;BME280;8520;50.102;20.010;2022-07-10T12:48:21;98176.81;;;20.87;48.70
16806;BME280;8520;50.102;20.010;2022-07-10T12:51:24;98175.72;;;20.49;50.10
16806;BME280;8520;50.102;20.010;2022-07-10T12:54:32;98213.88;;;19.85;51.13
16806;BME280;8520;50.102;20.010;2022-07-10T12:57:22;98203.72;;;19.43;52.71
16806;BME280;8520;50.102;20.010;2022-07-10T13:00:12;98192.03;;;19.84;51.27
16806;BME280;8520;50.102;20.010;2022-07-10T13:03:03;98211.16;;;19.40;51.90
16806;BME280;8520;50.102;20.010;2022-07-10T13:05:52;98188.88;;;19.21;54.31
16806;BME280;8520;50.102;20.010;2022-07-10T13:08:44;98229.34;;;18.64;54.70
16806;BME280;8520;50.102;20.010;2022-07-10T13:11:33;98232.78;;;18.57;54.78
16806;BME280;8520;50.102;20.010;2022-07-10T13:14:23;98227.09;;;18.25;55.17
16806;BME280;8520;50.102;20.010;2022-07-10T13:17:11;98206.47;;;18.33;55.11
16806;BME280;8520;50.102;20.010;2022-07-10T13:20:00;98254.16;;;17.62;54.48
16806;BME280;8520;50.102;20.010;2022-07-10T13:22:49;98230.66;;;17.82;55.10
16806;BME280;8520;50.102;20.010;2022-07-10T13:25:38;98226.03;;;17.35;57.28
16806;BME280;8520;50.102;20.010;2022-07-10T13:28:26;98224.91;;;17.50;55.96
16806;BME280;8520;50.102;20.010;2022-07-10T13:31:16;98227.06;;;17.87;56.34
16806;BME280;8520;50.102;20.010;2022-07-10T13:34:05;98203.34;;;17.99;56.47
16806;BME280;8520;50.102;20.010;2022-07-10T13:36:53;98207.75;;;17.70;56.82
16806;BME280;8520;50.102;20.010;2022-07-10T13:39:43;98214.97;;;18.22;57.07
16806;BME280;8520;50.102;20.010;2022-07-10T13:42:32;98205.25;;;18.29;55.95
16806;BME280;8520;50.102;20.010;2022-07-10T13:45:20;98247.09;;;18.29;55.44
16806;BME280;8520;50.102;20.010;2022-07-10T13:48:12;98226.41;;;18.18;54.61
16806;BME280;8520;50.102;20.010;2022-07-10T13:51:01;98238.19;;;17.62;55.19
16806;BME280;8520;50.102;20.010;2022-07-10T13:53:49;98213.44;;;17.83;55.80
16806;BME280;8520;50.102;20.010;2022-07-10T13:56:37;98200.81;;;18.39;55.68
16806;BME280;8520;50.102;20.010;2022-07-10T13:59:26;98221.63;;;18.57;54.69
16806;BME280;8520;50.102;20.010;2022-07-10T14:02:14;98202.28;;;18.59;53.33
16806;BME280;8520;50.102;20.010;2022-07-10T14:05:06;98211.03;;;18.87;52.04
16806;BME280;8520;50.102;20.010;2022-07-10T14:07:55;98214.19;;;19.10;50.86
16806;BME280;8520;50.102;20.010;2022-07-10T14:10:43;98209.25;;;19.03;50.84
16806;BME280;8520;50.102;20.010;2022-07-10T14:13:32;98217.50;;;18.95;51.60
16806;BME280;8520;50.102;20.010;2022-07-10T14:16:20;98227.31;;;18.83;51.28
16806;BME280;8520;50.102;20.010;2022-07-10T14:19:09;98213.34;;;19.02;51.39
16806;BME280;8520;50.102;20.010;2022-07-10T14:21:59;98250.94;;;18.26;50.26
16806;BME280;8520;50.102;20.010;2022-07-10T14:24:48;98206.13;;;18.93;49.58
16806;BME280;8520;50.102;20.010;2022-07-10T14:27:36;98222.97;;;19.01;50.02
16806;BME280;8520;50.102;20.010;2022-07-10T14:30:25;98226.88;;;18.79;50.10
16806;BME280;8520;50.102;20.010;2022-07-10T14:33:13;98226.56;;;18.07;52.52
16806;BME280;8520;50.102;20.010;2022-07-10T14:36:02;98227.78;;;18.87;51.70
16806;BME280;8520;50.102;20.010;2022-07-10T14:38:52;98222.22;;;19.00;51.62
16806;BME280;8520;50.102;20.010;2022-07-10T14:41:41;98226.13;;;18.79;48.75
16806;BME280;8520;50.102;20.010;2022-07-10T14:44:29;98227.19;;;18.75;49.01
16806;BME280;8520;50.102;20.010;2022-07-10T14:47:18;98227.78;;;18.50;48.89
16806;BME280;8520;50.102;20.010;2022-07-10T14:50:07;98212.38;;;18.81;50.41
16806;BME280;8520;50.102;20.010;2022-07-10T14:52:55;98254.72;;;18.47;49.30
16806;BME280;8520;50.102;20.010;2022-07-10T14:55:45;98240.25;;;18.67;50.26
16806;BME280;8520;50.102;20.010;2022-07-10T14:58:34;98227.09;;;18.62;51.70
16806;BME280;8520;50.102;20.010;2022-07-10T15:01:42;98230.19;;;18.59;51.59
16806;BME280;8520;50.102;20.010;2022-07-10T15:04:31;98251.16;;;19.16;51.40